Time;durP1;ratioP1;P1;durP2;ratioP2;P2;SDS_P1;SDS_P2;PMS_P1;PMS_P2;Temp;Humidity;BMP_temperature;BMP_pressure;BME280_temperature;BME280_humidity;BME280_pressure;Samples;Min_cycle;Max_cycle;Signal;HPM_P1;HPM_P2
2021/04/03 00:00:30;;;;;;;8.63;4.20;;;9.50;63.60;;;;;;5112823;28;20067;-75
2021/04/03 00:02:58;;;;;;;8.50;4.05;;;9.40;63.60;;;;;;5122389;28;20047;-77
2021/04/03 00:05:26;;;;;;;7.38;4.05;;;9.30;64.60;;;;;;5119677;28;20381;-77
2021/04/03 00:07:53;;;;;;;9.50;3.83;;;9.30;64.50;;;;;;5113915;28;20140;-75
2021/04/03 00:10:25;;;;;;;8.48;3.90;;;9.20;64.80;;;;;;5099850;28;20521;-76
2021/04/03 00:12:52;;;;;;;7.40;4.22;;;9.10;65.60;;;;;;5093321;28;20090;-75
2021/04/03 00:15:20;;;;;;;8.15;4.18;;;9.10;65.40;;;;;;5093193;28;20087;-75
2021/04/03 00:17:46;;;;;;;7.30;3.83;;;9.00;65.20;;;;;;5093167;28;20105;-76
2021/04/03 00:20:16;;;;;;;8.10;3.90;;;9.10;65.30;;;;;;5105405;28;20085;-76
2021/04/03 00:22:43;;;;;;;7.82;4.00;;;9.10;65.60;;;;;;5113784;28;20044;-76
2021/04/03 00:25:11;;;;;;;9.77;4.30;;;9.10;65.10;;;;;;5113403;28;20079;-76
2021/04/03 00:27:38;;;;;;;8.13;4.07;;;9.10;65.00;;;;;;5113484;28;20124;-75
2021/04/03 00:30:15;;;;;;;7.05;4.05;;;9.10;64.80;;;;;;5110516;28;20075;-78
2021/04/03 00:32:44;;;;;;;7.00;3.83;;;9.00;65.40;;;;;;5099986;28;20562;-75
2021/04/03 00:35:12;;;;;;;9.02;3.92;;;8.90;65.70;;;;;;5113646;28;20469;-77
2021/04/03 00:37:39;;;;;;;6.55;3.95;;;8.90;66.30;;;;;;5113565;28;20054;-75
2021/04/03 00:40:10;;;;;;;7.78;4.25;;;8.90;65.90;;;;;;5114868;28;20062;-76
2021/04/03 00:42:36;;;;;;;6.03;4.28;;;8.90;65.90;;;;;;5117376;28;20123;-77
2021/04/03 00:45:05;;;;;;;8.63;4.30;;;8.90;65.50;;;;;;5117111;28;20086;-76
2021/04/03 00:47:31;;;;;;;8.73;4.35;;;8.90;65.20;;;;;;5117156;28;20075;-76
2021/04/03 00:49:59;;;;;;;7.53;4.22;;;8.80;65.50;;;;;;5107300;28;20467;-76
2021/04/03 00:52:26;;;;;;;7.43;4.60;;;8.60;65.80;;;;;;5096780;28;20073;-76
2021/04/03 00:54:55;;;;;;;9.38;4.13;;;8.70;66.20;;;;;;5096623;28;20091;-75
2021/04/03 00:57:22;;;;;;;7.40;4.80;;;8.70;65.90;;;;;;5099215;28;20071;-75
2021/04/03 00:59:49;;;;;;;8.75;4.32;;;8.60;66.30;;;;;;5108673;28;20043;-77
2021/04/03 01:02:15;;;;;;;6.70;3.92;;;8.60;65.30;;;;;;5096491;28;20548;-75
2021/04/03 01:04:42;;;;;;;8.48;4.13;;;8.60;65.70;;;;;;5096353;28;20106;-75
2021/04/03 01:07:09;;;;;;;9.05;4.35;;;8.60;65.80;;;;;;5096588;28;20079;-75
2021/04/03 01:09:38;;;;;;;8.80;5.00;;;8.60;66.70;;;;;;5097534;28;20127;-75
2021/04/03 01:12:26;;;;;;;6.97;4.20;;;8.60;65.00;;;;;;5096693;28;20079;-75
2021/04/03 01:15:07;;;;;;;7.47;4.30;;;8.50;65.20;;;;;;5096437;28;20466;-75
2021/04/03 01:17:53;;;;;;;8.27;4.80;;;8.50;65.70;;;;;;5096339;28;20091;-76
2021/04/03 01:20:45;;;;;;;9.88;4.60;;;8.60;64.50;;;;;;5102351;28;20127;-75
2021/04/03 01:24:23;;;;;;;10.40;4.75;;;8.60;64.50;;;;;;5113572;28;20054;-74
2021/04/03 01:27:22;;;;;;;9.88;4.78;;;8.60;64.60;;;;;;5114614;28;20047;-75
2021/04/03 01:30:02;;;;;;;8.40;4.93;;;8.60;65.10;;;;;;5106716;28;20138;-74
2021/04/03 01:32:40;;;;;;;8.40;4.85;;;8.60;64.20;;;;;;5114685;28;20052;-76
2021/04/03 01:35:10;;;;;;;8.93;4.80;;;8.60;64.40;;;;;;5096934;28;20084;-76
2021/04/03 01:37:47;;;;;;;8.38;4.32;;;8.60;64.60;;;;;;5095610;28;20086;-75
2021/04/03 01:40:20;;;;;;;10.02;4.55;;;8.50;65.50;;;;;;5100388;28;20086;-75
2021/04/03 01:42:54;;;;;;;8.85;4.70;;;8.60;65.10;;;;;;5109469;28;20409;-76
2021/04/03 01:45:23;;;;;;;8.05;4.65;;;8.60;65.20;;;;;;5095821;28;20135;-76
2021/04/03 01:47:51;;;;;;;9.30;4.68;;;8.60;64.30;;;;;;5105267;28;20075;-75
2021/04/03 01:50:20;;;;;;;11.00;4.47;;;8.60;63.70;;;;;;5110363;28;20044;-76
2021/04/03 01:52:48;;;;;;;7.85;4.18;;;8.60;63.60;;;;;;5095737;28;20082;-76
2021/04/03 01:55:17;;;;;;;7.90;4.25;;;8.50;63.40;;;;;;5095689;28;20040;-76
2021/04/03 01:57:48;;;;;;;7.80;4.10;;;8.50;63.80;;;;;;5123851;28;20040;-77
2021/04/03 02:00:22;;;;;;;7.47;4.10;;;8.60;64.00;;;;;;5117256;28;20139;-75
2021/04/03 02:02:50;;;;;;;6.65;3.95;;;8.60;63.60;;;;;;5102920;28;20063;-75
2021/04/03 02:05:18;;;;;;;9.63;5.15;;;8.60;64.00;;;;;;5116852;28;20135;-75
2021/04/03 02:07:47;;;;;;;10.65;4.80;;;8.70;63.20;;;;;;5116217;28;20536;-78
2021/04/03 02:10:17;;;;;;;8.30;4.75;;;8.70;63.20;;;;;;5111960;28;20055;-77
2021/04/03 02:12:46;;;;;;;8.57;4.65;;;8.60;63.30;;;;;;5095249;28;20147;-75
2021/04/03 02:15:14;;;;;;;9.80;4.85;;;8.60;63.40;;;;;;5096163;28;20090;-77
2021/04/03 02:17:45;;;;;;;9.70;4.75;;;8.60;63.50;;;;;;5097773;28;20052;-76
2021/04/03 02:20:13;;;;;;;7.80;4.10;;;8.60;63.40;;;;;;5096597;28;20485;-75
2021/04/03 02:22:43;;;;;;;8.25;4.35;;;8.60;63.30;;;;;;5102069;28;20478;-76
2021/04/03 02:25:12;;;;;;;9.18;5.07;;;8.60;63.60;;;;;;5104911;28;20047;-76
2021/04/03 02:27:39;;;;;;;9.73;4.43;;;8.60;62.60;;;;;;5106387;28;20040;-77
2021/04/03 02:30:12;;;;;;;5.97;3.95;;;8.60;62.50;;;;;;5105131;28;20074;-78
2021/04/03 02:32:41;;;;;;;9.02;4.50;;;8.50;62.90;;;;;;5097654;28;20079;-76
2021/04/03 02:35:10;;;;;;;8.25;4.00;;;8.50;63.50;;;;;;5094459;28;20086;-76
2021/04/03 02:37:38;;;;;;;8.20;4.47;;;8.50;63.30;;;;;;5101978;28;20430;-76
2021/04/03 02:40:07;;;;;;;8.73;4.38;;;8.60;62.70;;;;;;5115204;28;20162;-76
2021/04/03 02:42:39;;;;;;;7.95;3.97;;;8.50;62.60;;;;;;5115230;28;20082;-77
2021/04/03 02:45:10;;;;;;;8.32;4.13;;;8.40;62.70;;;;;;5115051;28;20054;-78
2021/04/03 02:47:42;;;;;;;8.60;4.38;;;8.40;62.90;;;;;;5106762;28;20528;-76
2021/04/03 02:50:16;;;;;;;8.98;4.40;;;8.40;63.80;;;;;;5094454;28;20056;-78
2021/04/03 02:52:49;;;;;;;8.25;4.47;;;8.30;63.60;;;;;;5094718;28;20131;-78
2021/04/03 02:55:18;;;;;;;8.23;4.28;;;8.30;63.40;;;;;;5094624;28;20460;-77
2021/04/03 02:57:46;;;;;;;8.07;4.50;;;8.30;63.70;;;;;;5100632;28;20039;-75
2021/04/03 03:00:15;;;;;;;6.10;3.78;;;8.30;63.40;;;;;;5105626;28;20075;-75
2021/04/03 03:03:06;;;;;;;7.80;4.53;;;8.30;63.10;;;;;;5108011;28;20062;-77
2021/04/03 03:05:34;;;;;;;8.75;3.88;;;8.30;63.20;;;;;;5116212;28;20048;-76
2021/04/03 03:08:04;;;;;;;9.63;4.50;;;8.20;63.60;;;;;;5104723;28;20075;-78
2021/04/03 03:10:31;;;;;;;9.05;4.15;;;8.20;63.90;;;;;;5092007;28;20084;-77
2021/04/03 03:12:59;;;;;;;8.75;3.88;;;8.20;63.70;;;;;;5091891;28;20123;-75
2021/04/03 03:15:30;;;;;;;10.77;4.70;;;8.20;64.10;;;;;;5091643;28;20075;-76
2021/04/03 03:17:57;;;;;;;8.38;4.38;;;8.30;63.90;;;;;;5098370;28;20618;-75
2021/04/03 03:20:24;;;;;;;8.43;3.80;;;8.20;64.10;;;;;;5111938;28;20123;-78
2021/04/03 03:22:52;;;;;;;7.55;4.43;;;8.20;64.60;;;;;;5111545;28;20544;-78
2021/04/03 03:25:18;;;;;;;9.60;4.40;;;8.20;64.20;;;;;;5111698;28;20040;-78
2021/04/03 03:27:47;;;;;;;8.27;3.97;;;8.20;64.20;;;;;;5101455;28;20703;-76
2021/04/03 03:30:17;;;;;;;6.85;4.18;;;8.20;63.90;;;;;;5091709;28;20497;-78
2021/04/03 03:32:45;;;;;;;7.15;3.70;;;8.20;64.20;;;;;;5097499;28;20079;-77
2021/04/03 03:35:13;;;;;;;6.63;3.70;;;8.20;63.70;;;;;;5108776;28;20153;-77
2021/04/03 03:37:42;;;;;;;9.40;4.13;;;8.20;64.30;;;;;;5102207;28;20142;-77
2021/04/03 03:40:13;;;;;;;9.38;3.80;;;8.20;64.30;;;;;;5091210;28;20127;-76
2021/04/03 03:42:41;;;;;;;7.28;3.80;;;8.20;63.80;;;;;;5091056;28;20084;-76
2021/04/03 03:45:11;;;;;;;9.55;3.85;;;8.20;63.80;;;;;;5090885;28;20126;-75
2021/04/03 03:47:38;;;;;;;8.00;4.15;;;8.10;63.60;;;;;;5098415;28;20124;-76
2021/04/03 03:50:07;;;;;;;9.48;4.30;;;8.10;63.30;;;;;;5111350;28;20132;-76
2021/04/03 03:52:34;;;;;;;7.95;3.92;;;8.10;63.50;;;;;;5111253;28;20158;-75
2021/04/03 03:55:01;;;;;;;6.65;3.75;;;8.00;63.90;;;;;;5111517;28;20513;-77
2021/04/03 03:57:28;;;;;;;6.18;3.70;;;8.00;64.40;;;;;;5110574;28;20126;-76
2021/04/03 03:59:55;;;;;;;6.68;3.75;;;7.90;63.90;;;;;;5111583;28;20085;-77
2021/04/03 04:02:22;;;;;;;8.80;4.00;;;8.00;64.10;;;;;;5112061;28;20086;-78
2021/04/03 04:04:48;;;;;;;9.98;4.32;;;7.90;64.70;;;;;;5113597;28;20131;-76
2021/04/03 04:07:15;;;;;;;8.35;4.00;;;7.90;64.00;;;;;;5110537;28;20095;-78
2021/04/03 04:09:42;;;;;;;9.18;3.88;;;7.90;64.60;;;;;;5105306;28;20055;-77
2021/04/03 04:12:10;;;;;;;7.20;3.88;;;7.80;64.60;;;;;;5098516;28;20474;-78
2021/04/03 04:14:38;;;;;;;7.15;3.90;;;7.80;65.30;;;;;;5092800;28;20584;-76
2021/04/03 04:17:05;;;;;;;7.80;3.88;;;7.90;65.70;;;;;;5105365;28;20083;-76
2021/04/03 04:19:32;;;;;;;8.05;4.05;;;7.90;65.30;;;;;;5113682;28;20086;-77
2021/04/03 04:22:03;;;;;;;7.32;3.97;;;7.90;65.30;;;;;;5113388;28;20078;-77
2021/04/03 04:24:29;;;;;;;8.25;3.90;;;8.00;65.30;;;;;;5114040;28;20131;-77
2021/04/03 04:26:56;;;;;;;7.35;3.65;;;8.00;65.20;;;;;;5112631;28;20176;-79
2021/04/03 04:29:22;;;;;;;8.60;4.55;;;8.00;65.20;;;;;;5112470;28;20091;-78
2021/04/03 04:31:50;;;;;;;11.57;4.28;;;8.00;65.30;;;;;;5113593;28;20126;-75
2021/04/03 04:34:16;;;;;;;7.22;3.72;;;8.00;64.90;;;;;;5113668;28;20086;-74
2021/04/03 04:36:43;;;;;;;8.60;3.97;;;8.10;65.10;;;;;;5113601;28;20127;-76
2021/04/03 04:39:10;;;;;;;9.25;4.40;;;8.00;65.40;;;;;;5107854;28;20054;-77
2021/04/03 04:41:37;;;;;;;8.07;4.13;;;8.00;65.10;;;;;;5099338;28;20109;-76
2021/04/03 04:44:04;;;;;;;8.20;4.07;;;8.10;64.90;;;;;;5093084;28;20157;-78
2021/04/03 04:46:31;;;;;;;8.20;4.55;;;8.00;64.40;;;;;;5093105;28;20131;-77
2021/04/03 04:48:59;;;;;;;9.60;3.97;;;8.00;64.90;;;;;;5109766;28;20047;-77
2021/04/03 04:51:25;;;;;;;8.00;4.15;;;7.90;65.30;;;;;;5103493;28;20044;-78
2021/04/03 04:53:52;;;;;;;8.65;3.95;;;7.90;64.70;;;;;;5092782;28;20050;-75
2021/04/03 04:56:19;;;;;;;6.80;3.58;;;7.70;65.00;;;;;;5110408;28;20036;-76
2021/04/03 04:58:45;;;;;;;8.30;3.35;;;7.80;65.70;;;;;;5124416;28;20042;-76
2021/04/03 05:01:12;;;;;;;6.80;3.50;;;7.70;65.30;;;;;;5113489;28;20126;-75
2021/04/03 05:03:38;;;;;;;8.38;3.13;;;7.80;65.20;;;;;;5113278;28;20078;-76
2021/04/03 05:06:06;;;;;;;7.43;3.00;;;7.70;65.40;;;;;;5109836;28;20135;-76
2021/04/03 05:08:32;;;;;;;5.43;3.00;;;7.70;65.70;;;;;;5099947;28;20084;-76
2021/04/03 05:10:59;;;;;;;6.35;3.10;;;7.60;65.70;;;;;;5092765;28;20126;-77
2021/04/03 05:13:26;;;;;;;5.45;2.88;;;7.70;65.40;;;;;;5092642;28;20080;-76
2021/04/03 05:15:54;;;;;;;6.40;3.10;;;7.80;65.50;;;;;;5092650;28;20087;-77
2021/04/03 05:18:21;;;;;;;7.15;3.13;;;7.80;65.60;;;;;;5103699;28;20122;-77
2021/04/03 05:20:48;;;;;;;6.60;3.00;;;7.80;65.30;;;;;;5113269;28;20079;-77
2021/04/03 05:23:18;;;;;;;5.32;3.00;;;7.90;65.50;;;;;;5111074;28;20185;-77
2021/04/03 05:25:45;;;;;;;6.95;2.83;;;7.90;64.90;;;;;;5114391;28;20408;-77
2021/04/03 05:28:13;;;;;;;6.13;2.70;;;7.90;65.60;;;;;;5106857;28;20134;-77
2021/04/03 05:30:40;;;;;;;5.85;3.13;;;8.00;65.20;;;;;;5096014;28;20052;-77
2021/04/03 05:33:07;;;;;;;6.47;2.95;;;8.00;64.70;;;;;;5095452;28;20132;-75
2021/04/03 05:35:33;;;;;;;6.45;2.95;;;8.10;64.70;;;;;;5096200;28;20052;-75
2021/04/03 05:38:00;;;;;;;7.88;3.13;;;8.00;64.60;;;;;;5100612;28;20078;-77
2021/04/03 05:40:30;;;;;;;6.55;3.30;;;8.00;64.70;;;;;;5095945;28;20083;-78
2021/04/03 05:43:02;;;;;;;6.95;3.42;;;8.10;64.80;;;;;;5095575;28;20139;-77
2021/04/03 05:45:29;;;;;;;5.35;2.63;;;8.20;63.50;;;;;;5096127;28;20067;-78
2021/04/03 05:47:59;;;;;;;6.20;3.28;;;8.00;64.40;;;;;;5101280;28;20125;-79
2021/04/03 05:50:26;;;;;;;10.05;3.25;;;8.00;65.10;;;;;;5116259;28;20126;-79
2021/04/03 05:52:53;;;;;;;7.43;3.05;;;8.00;65.10;;;;;;5114203;28;20522;-76
2021/04/03 05:55:19;;;;;;;5.72;3.30;;;8.00;65.00;;;;;;5116221;28;20456;-77
2021/04/03 05:57:47;;;;;;;7.53;3.10;;;8.00;65.10;;;;;;5096983;28;20044;-76
2021/04/03 06:00:15;;;;;;;7.35;2.95;;;8.00;65.20;;;;;;5095801;28;20131;-75
2021/04/03 06:02:41;;;;;;;6.68;2.85;;;8.10;64.70;;;;;;5106547;28;20071;-74
2021/04/03 06:05:09;;;;;;;7.82;3.33;;;8.10;64.60;;;;;;5113047;28;20071;-74
2021/04/03 06:07:39;;;;;;;6.13;2.75;;;8.00;64.80;;;;;;5107751;28;20123;-74
2021/04/03 06:10:08;;;;;;;6.60;2.65;;;8.00;65.30;;;;;;5101253;28;20044;-74
2021/04/03 06:12:42;;;;;;;4.97;2.78;;;8.00;65.10;;;;;;5098816;28;20138;-74
2021/04/03 06:15:14;;;;;;;5.47;2.97;;;8.10;65.30;;;;;;5077403;28;20078;-74
2021/04/03 06:17:42;;;;;;;7.05;2.95;;;8.10;65.20;;;;;;5095169;28;20044;-74
2021/04/03 06:20:10;;;;;;;9.45;3.60;;;8.10;65.60;;;;;;5102426;28;20610;-78
2021/04/03 06:22:48;;;;;;;7.35;3.15;;;8.20;65.20;;;;;;5114259;28;20036;-76
2021/04/03 06:25:15;;;;;;;8.85;3.60;;;8.10;65.50;;;;;;5096740;28;20048;-77
2021/04/03 06:27:42;;;;;;;8.68;3.75;;;8.20;65.70;;;;;;5107633;28;20060;-77
2021/04/03 06:30:31;;;;;;;7.50;3.70;;;8.30;65.30;;;;;;5095008;28;20109;-77
2021/04/03 06:33:14;;;;;;;6.07;2.67;;;8.20;65.50;;;;;;5094971;28;20413;-77
2021/04/03 06:35:41;;;;;;;7.20;3.35;;;8.30;65.60;;;;;;5114497;28;20071;-77
2021/04/03 06:38:19;;;;;;;6.57;3.00;;;8.40;65.10;;;;;;5114215;28;20051;-77
2021/04/03 06:40:46;;;;;;;7.85;3.33;;;8.40;65.00;;;;;;5115404;28;20134;-77
2021/04/03 06:43:15;;;;;;;5.82;2.90;;;8.40;65.10;;;;;;5105051;28;20048;-77
2021/04/03 06:45:44;;;;;;;8.68;3.53;;;8.30;64.50;;;;;;5113551;28;20044;-79
2021/04/03 06:48:13;;;;;;;6.95;3.05;;;8.40;64.20;;;;;;5107735;28;20044;-78
2021/04/03 06:50:41;;;;;;;7.10;2.67;;;8.30;65.00;;;;;;5115573;28;20070;-77
2021/04/03 06:53:10;;;;;;;5.63;2.55;;;8.30;64.50;;;;;;5114109;28;20047;-76
2021/04/03 06:55:38;;;;;;;6.75;2.15;;;8.10;64.40;;;;;;5113529;28;20086;-76
2021/04/03 06:58:07;;;;;;;7.30;2.55;;;8.00;64.70;;;;;;5114747;28;20079;-77
2021/04/03 07:00:36;;;;;;;7.47;2.50;;;8.10;64.60;;;;;;5107346;28;20072;-76
2021/04/03 07:03:10;;;;;;;5.43;2.05;;;8.10;65.00;;;;;;5094960;28;20052;-80
2021/04/03 07:05:38;;;;;;;5.78;2.75;;;8.00;65.00;;;;;;5095629;28;20056;-77
2021/04/03 07:08:06;;;;;;;7.22;2.60;;;8.10;63.70;;;;;;5094569;28;20080;-75
2021/04/03 07:10:35;;;;;;;5.63;2.33;;;8.10;64.60;;;;;;5101005;28;20483;-75
2021/04/03 07:13:02;;;;;;;6.53;2.50;;;8.10;64.40;;;;;;5114663;28;20070;-77
2021/04/03 07:15:30;;;;;;;7.15;2.40;;;8.10;63.70;;;;;;5103730;28;20141;-78
2021/04/03 07:17:57;;;;;;;5.40;2.00;;;8.10;64.30;;;;;;5097702;28;20131;-77
2021/04/03 07:20:27;;;;;;;7.53;2.47;;;8.10;64.20;;;;;;5103876;28;20564;-77
2021/04/03 07:22:58;;;;;;;7.22;2.30;;;8.10;64.10;;;;;;5114720;28;20055;-79
2021/04/03 07:25:29;;;;;;;5.45;2.33;;;8.10;63.20;;;;;;5111992;28;20148;-78
2021/04/03 07:27:56;;;;;;;6.57;2.08;;;8.10;63.10;;;;;;5093949;28;20131;-78
2021/04/03 07:30:44;;;;;;;5.63;2.42;;;8.10;63.60;;;;;;5095300;28;20143;-76
2021/04/03 07:33:13;;;;;;;5.05;2.13;;;8.10;63.70;;;;;;5094134;28;20126;-77
2021/04/03 07:35:46;;;;;;;4.65;2.30;;;8.10;63.80;;;;;;5103959;28;20071;-76
2021/04/03 07:38:15;;;;;;;8.80;2.60;;;8.20;64.10;;;;;;5114613;28;20085;-77
2021/04/03 07:40:45;;;;;;;8.15;2.42;;;8.20;63.70;;;;;;5114509;28;20048;-77
2021/04/03 07:43:40;;;;;;;6.13;2.30;;;8.30;63.20;;;;;;5114395;28;20047;-78
2021/04/03 07:46:13;;;;;;;7.95;2.40;;;8.40;63.10;;;;;;5095108;28;20065;-78
2021/04/03 07:48:58;;;;;;;6.10;2.40;;;8.40;63.50;;;;;;5081618;28;20082;-78
2021/04/03 07:51:46;;;;;;;5.15;2.17;;;8.40;63.50;;;;;;5100835;28;20131;-76
2021/04/03 07:54:30;;;;;;;5.75;2.17;;;8.50;63.50;;;;;;5105430;28;20074;-78
2021/04/03 07:57:04;;;;;;;5.95;2.50;;;8.50;63.50;;;;;;5115958;28;20051;-77
2021/04/03 07:59:53;;;;;;;7.28;2.30;;;8.60;63.60;;;;;;5122050;28;20071;-78
2021/04/03 08:02:29;;;;;;;5.93;2.42;;;8.70;62.70;;;;;;5105434;28;20505;-79
2021/04/03 08:04:57;;;;;;;4.35;2.13;;;8.70;62.50;;;;;;5121123;28;20070;-79
2021/04/03 08:07:25;;;;;;;4.57;2.40;;;8.70;62.30;;;;;;5105080;28;20083;-78
2021/04/03 08:09:53;;;;;;;6.82;2.45;;;8.70;62.30;;;;;;5103152;28;20561;-77
2021/04/03 08:12:26;;;;;;;6.68;2.38;;;8.90;61.70;;;;;;5099259;28;20156;-78
2021/04/03 08:14:56;;;;;;;4.15;1.92;;;9.00;62.00;;;;;;5093827;28;20052;-79
2021/04/03 08:17:25;;;;;;;7.03;2.20;;;9.20;61.50;;;;;;5098650;28;20090;-77
2021/04/03 08:19:51;;;;;;;5.50;2.50;;;9.30;60.60;;;;;;5098843;28;20111;-77
2021/04/03 08:22:18;;;;;;;6.47;2.58;;;9.40;59.80;;;;;;5105733;28;20103;-79
2021/04/03 08:25:01;;;;;;;6.13;2.40;;;9.40;59.50;;;;;;5101445;28;20131;-80
2021/04/03 08:27:36;;;;;;;4.40;2.10;;;9.40;59.50;;;;;;5093923;28;20048;-77
2021/04/03 08:30:20;;;;;;;;;;;9.50;59.20;;;;;;5094154;28;20063;-78
2021/04/03 08:33:05;;;;;;;4.85;2.40;;;9.50;59.20;;;;;;5097456;28;19964;-77
2021/04/03 08:35:37;;;;;;;5.05;2.17;;;9.50;58.20;;;;;;5102081;28;20036;-81
2021/04/03 08:38:20;;;;;;;4.82;2.00;;;9.50;58.90;;;;;;5097719;28;20491;-79
2021/04/03 08:40:50;;;;;;;5.05;2.00;;;9.60;59.00;;;;;;5096461;28;20075;-77
2021/04/03 08:43:27;;;;;;;5.35;2.20;;;9.60;59.60;;;;;;5101768;28;20474;-79
2021/04/03 08:46:02;;;;;;;6.78;2.10;;;9.60;58.20;;;;;;5096720;28;20052;-80
2021/04/03 08:48:34;;;;;;;5.85;2.33;;;9.60;58.30;;;;;;5098948;28;20079;-78
2021/04/03 08:51:00;;;;;;;6.65;2.10;;;9.70;58.10;;;;;;5104001;28;20135;-80
2021/04/03 08:53:41;;;;;;;7.25;2.70;;;9.70;59.00;;;;;;5108775;28;20051;-80
2021/04/03 08:56:11;;;;;;;4.70;2.03;;;9.70;58.70;;;;;;5103045;28;20079;-80
2021/04/03 08:58:42;;;;;;;6.00;2.45;;;9.80;59.00;;;;;;5099202;28;20119;-79
2021/04/03 09:01:09;;;;;;;6.20;2.30;;;9.80;58.00;;;;;;5110820;28;20046;-79
2021/04/03 09:03:38;;;;;;;5.47;2.47;;;9.70;57.80;;;;;;5082921;28;20040;-78
2021/04/03 09:06:07;;;;;;;6.03;2.22;;;9.80;57.80;;;;;;5114500;28;20071;-78
2021/04/03 09:08:33;;;;;;;5.57;2.22;;;9.80;57.70;;;;;;5100244;28;20048;-78
2021/04/03 09:11:03;;;;;;;5.18;2.20;;;9.80;57.60;;;;;;5105598;28;20135;-78
2021/04/03 09:13:35;;;;;;;6.53;2.60;;;9.70;57.90;;;;;;5116542;28;20138;-79
2021/04/03 09:16:11;;;;;;;6.47;2.40;;;9.80;58.00;;;;;;5103195;28;20486;-78
2021/04/03 09:18:39;;;;;;;5.18;2.33;;;9.80;57.70;;;;;;5114773;28;20152;-76
2021/04/03 09:21:06;;;;;;;4.57;1.95;;;9.70;57.60;;;;;;5111658;28;20082;-79
2021/04/03 09:23:40;;;;;;;4.43;2.42;;;9.80;57.20;;;;;;5103821;28;20044;-79
2021/04/03 09:26:07;;;;;;;6.13;2.42;;;9.90;57.50;;;;;;5098017;28;20048;-78
2021/04/03 09:28:39;;;;;;;5.63;2.38;;;9.90;57.20;;;;;;5112061;28;20489;-80
2021/04/03 09:31:08;;;;;;;5.50;2.30;;;10.00;57.30;;;;;;5097730;28;20052;-78
2021/04/03 09:33:46;;;;;;;4.80;2.13;;;10.00;57.30;;;;;;5109844;28;20051;-79
2021/04/03 09:36:17;;;;;;;4.85;2.40;;;10.20;57.60;;;;;;5100824;28;20048;-79
2021/04/03 09:38:45;;;;;;;5.82;2.30;;;10.20;56.80;;;;;;5110987;28;20514;-79
2021/04/03 09:41:30;;;;;;;4.20;2.10;;;10.30;56.60;;;;;;5114313;28;20051;-80
2021/04/03 09:43:58;;;;;;;5.70;2.35;;;10.40;57.00;;;;;;5103583;28;20543;-78
2021/04/03 09:46:25;;;;;;;4.35;2.20;;;10.40;56.00;;;;;;5099890;28;20488;-79
2021/04/03 09:48:52;;;;;;;4.55;2.20;;;10.40;55.50;;;;;;5108196;28;20055;-80
2021/04/03 09:51:21;;;;;;;5.90;2.03;;;10.50;55.30;;;;;;5100720;28;20067;-79
2021/04/03 09:53:48;;;;;;;6.00;2.53;;;10.60;55.10;;;;;;5096560;28;20048;-79
2021/04/03 09:56:15;;;;;;;5.82;2.25;;;10.70;54.30;;;;;;5108139;28;20527;-79
2021/04/03 09:58:41;;;;;;;5.43;2.30;;;10.80;53.90;;;;;;5102795;28;20069;-79
2021/04/03 10:01:09;;;;;;;4.15;2.00;;;11.00;53.90;;;;;;5092457;28;20528;-77
2021/04/03 10:03:36;;;;;;;3.97;1.90;;;10.90;53.70;;;;;;5116930;28;20086;-79
2021/04/03 10:06:03;;;;;;;5.03;2.00;;;10.80;53.50;;;;;;5081145;28;20098;-78
2021/04/03 10:08:30;;;;;;;5.90;2.10;;;10.90;52.90;;;;;;5099215;28;20040;-78
2021/04/03 10:10:56;;;;;;;4.55;2.15;;;10.90;53.90;;;;;;5099779;28;20538;-79
2021/04/03 10:13:23;;;;;;;4.70;1.90;;;11.10;52.50;;;;;;5111246;28;20575;-77
2021/04/03 10:15:50;;;;;;;4.88;2.03;;;11.20;52.30;;;;;;5100015;28;20048;-79
2021/04/03 10:18:18;;;;;;;4.00;2.03;;;11.30;52.50;;;;;;5097534;28;20126;-78
2021/04/03 10:20:45;;;;;;;5.97;2.10;;;11.30;52.70;;;;;;5102535;28;20082;-79
2021/04/03 10:23:11;;;;;;;6.32;2.60;;;11.40;52.90;;;;;;5105631;28;20055;-81
2021/04/03 10:25:38;;;;;;;5.85;2.30;;;11.50;51.80;;;;;;5096093;28;20041;-78
2021/04/03 10:28:05;;;;;;;4.38;1.83;;;11.50;51.90;;;;;;5097445;28;20059;-80
2021/04/03 10:30:32;;;;;;;4.45;2.00;;;11.40;50.90;;;;;;5102213;28;20043;-79
2021/04/03 10:32:59;;;;;;;5.85;2.83;;;11.30;52.10;;;;;;5108964;28;20109;-79
2021/04/03 10:35:26;;;;;;;4.20;1.90;;;11.30;52.00;;;;;;5114696;28;20055;-80
2021/04/03 10:37:53;;;;;;;4.03;1.85;;;11.30;52.30;;;;;;5109885;28;20048;-79
2021/04/03 10:40:20;;;;;;;5.03;2.20;;;11.30;52.00;;;;;;5115848;28;20075;-82
2021/04/03 10:42:47;;;;;;;8.95;3.20;;;11.30;51.30;;;;;;5112846;28;20108;-81
2021/04/03 10:45:14;;;;;;;4.15;1.60;;;11.30;51.80;;;;;;5113437;28;20063;-80
2021/04/03 10:47:41;;;;;;;5.07;2.30;;;11.30;51.80;;;;;;5119145;28;20484;-80
2021/04/03 10:50:09;;;;;;;6.57;2.70;;;11.40;50.90;;;;;;5118283;28;20087;-79
2021/04/03 10:52:36;;;;;;;5.13;2.50;;;11.40;50.80;;;;;;5113523;28;20074;-80
2021/04/03 10:55:04;;;;;;;3.40;1.83;;;11.40;50.50;;;;;;5107936;28;20052;-80
2021/04/03 10:57:31;;;;;;;3.38;1.60;;;11.40;50.50;;;;;;5126710;28;20047;-78
2021/04/03 10:59:58;;;;;;;5.50;1.90;;;11.40;50.50;;;;;;5126340;28;20088;-79
2021/04/03 11:02:24;;;;;;;5.68;2.30;;;11.50;50.90;;;;;;5120984;28;20071;-79
2021/04/03 11:04:51;;;;;;;5.65;1.90;;;11.60;49.90;;;;;;5103890;28;20044;-77
2021/04/03 11:07:18;;;;;;;4.35;1.75;;;11.60;49.40;;;;;;5099789;28;20056;-77
2021/04/03 11:09:45;;;;;;;5.22;1.58;;;11.60;50.30;;;;;;5114670;28;20081;-78
2021/04/03 11:12:13;;;;;;;4.50;1.48;;;11.60;50.20;;;;;;5128192;28;20047;-80
2021/04/03 11:14:41;;;;;;;5.05;2.20;;;11.60;49.30;;;;;;5110961;28;20073;-78
2021/04/03 11:17:08;;;;;;;5.68;1.70;;;11.60;48.60;;;;;;5124076;28;20039;-78
2021/04/03 11:19:35;;;;;;;3.55;1.60;;;11.60;48.70;;;;;;5126781;28;20036;-78
2021/04/03 11:22:02;;;;;;;5.60;1.50;;;11.50;48.00;;;;;;5108177;28;20047;-77
2021/04/03 11:24:29;;;;;;;3.55;1.65;;;11.50;48.40;;;;;;5120005;28;20068;-77
2021/04/03 11:26:56;;;;;;;4.97;2.00;;;11.60;48.50;;;;;;5113417;28;20043;-78
2021/04/03 11:29:23;;;;;;;4.25;1.60;;;11.60;47.00;;;;;;5109165;28;20390;-78
2021/04/03 11:31:49;;;;;;;4.53;1.92;;;11.60;48.20;;;;;;5121719;28;20059;-78
2021/04/03 11:34:16;;;;;;;4.43;2.00;;;11.60;48.60;;;;;;5116241;28;20047;-79
2021/04/03 11:36:43;;;;;;;5.47;2.25;;;11.60;48.10;;;;;;5103396;28;20584;-77
2021/04/03 11:39:09;;;;;;;6.05;2.60;;;11.50;47.80;;;;;;5108133;28;20142;-77
2021/04/03 11:41:36;;;;;;;4.53;1.73;;;11.60;47.90;;;;;;5110835;28;20076;-75
2021/04/03 11:44:04;;;;;;;3.63;1.63;;;11.60;47.50;;;;;;5115734;28;20097;-78
2021/04/03 11:46:31;;;;;;;5.18;2.00;;;11.50;48.10;;;;;;5100456;28;20047;-75
2021/04/03 11:48:57;;;;;;;5.82;2.10;;;11.60;48.60;;;;;;5095476;28;20071;-77
2021/04/03 11:51:24;;;;;;;3.95;1.77;;;11.50;48.40;;;;;;5099328;28;20048;-79
2021/04/03 11:53:51;;;;;;;6.75;2.03;;;11.50;49.00;;;;;;5099474;28;20123;-78
2021/04/03 11:56:18;;;;;;;6.15;2.63;;;11.40;48.60;;;;;;5111462;28;20492;-78
2021/04/03 11:58:44;;;;;;;7.88;2.13;;;11.40;49.10;;;;;;5102816;28;20082;-77
2021/04/03 12:01:12;;;;;;;6.20;2.20;;;11.40;49.70;;;;;;5106287;28;20083;-77
2021/04/03 12:03:38;;;;;;;7.38;3.22;;;11.40;49.60;;;;;;5101138;28;20463;-76
2021/04/03 12:06:05;;;;;;;8.80;3.33;;;11.40;50.10;;;;;;5096686;28;20079;-79
2021/04/03 12:08:32;;;;;;;6.70;2.83;;;11.50;50.20;;;;;;5103855;28;20071;-77
2021/04/03 12:10:59;;;;;;;5.22;2.30;;;11.60;49.60;;;;;;5110008;28;20136;-77
2021/04/03 12:13:26;;;;;;;7.00;2.90;;;11.80;50.10;;;;;;5100574;28;20124;-77
2021/04/03 12:15:53;;;;;;;8.30;2.90;;;11.90;49.80;;;;;;5101615;28;20047;-79
2021/04/03 12:18:23;;;;;;;5.43;2.28;;;12.10;49.00;;;;;;5102172;28;20044;-76
2021/04/03 12:20:49;;;;;;;7.32;2.50;;;12.10;48.10;;;;;;5108321;28;20092;-77
2021/04/03 12:23:16;;;;;;;6.10;2.05;;;12.20;48.10;;;;;;5095677;28;20096;-78
2021/04/03 12:25:43;;;;;;;5.70;2.30;;;12.30;47.40;;;;;;5107024;28;20123;-78
2021/04/03 12:28:09;;;;;;;4.85;1.92;;;12.50;46.70;;;;;;5097924;28;20082;-77
2021/04/03 12:30:36;;;;;;;4.63;1.88;;;12.50;45.80;;;;;;5098711;28;20083;-76
2021/04/03 12:33:02;;;;;;;5.95;1.83;;;12.60;45.50;;;;;;5094646;28;20090;-74
2021/04/03 12:35:30;;;;;;;5.35;1.85;;;12.70;45.20;;;;;;5096565;28;20124;-75
2021/04/03 12:37:57;;;;;;;4.43;1.50;;;12.70;45.30;;;;;;5109296;28;20074;-75
2021/04/03 12:40:25;;;;;;;5.57;2.10;;;12.80;45.00;;;;;;5110806;28;20112;-77
2021/04/03 12:42:52;;;;;;;4.07;1.55;;;12.90;45.30;;;;;;5107508;28;20067;-79
2021/04/03 12:45:18;;;;;;;4.78;2.17;;;12.70;44.70;;;;;;5118514;28;20079;-76
2021/04/03 12:47:45;;;;;;;6.38;2.08;;;12.80;44.20;;;;;;5116147;28;20083;-76
2021/04/03 12:50:14;;;;;;;3.90;1.70;;;12.80;44.40;;;;;;5109106;28;20432;-78
2021/04/03 12:52:41;;;;;;;3.35;1.40;;;12.80;44.70;;;;;;5115170;28;20048;-76
2021/04/03 12:55:09;;;;;;;3.28;1.30;;;12.80;44.90;;;;;;5110048;28;20055;-76
2021/04/03 12:57:36;;;;;;;5.90;1.70;;;12.80;45.20;;;;;;5103423;28;20056;-77
2021/04/03 13:00:05;;;;;;;4.10;1.55;;;12.80;44.80;;;;;;5109068;28;20527;-78
2021/04/03 13:02:32;;;;;;;7.35;1.73;;;12.70;44.30;;;;;;5110116;28;20139;-77
2021/04/03 13:04:58;;;;;;;7.00;2.88;;;12.80;44.90;;;;;;5098850;28;20068;-77
2021/04/03 13:07:25;;;;;;;5.88;1.77;;;12.80;44.20;;;;;;5098997;28;20526;-78